sensor_id;sensor_type;location;lat;lon;timestamp;pressure;altitude;pressure_sealevel;temperature;humidity
13968;BME280;39536;52.198;9.920;2023-05-20T00:01:40;101607.50;;;14.20;100.00
13968;BME280;39536;52.198;9.920;2023-05-20T00:04:07;101607.22;;;14.29;100.00
13968;BME280;39536;52.198;9.920;2023-05-20T00:06:33;101602.81;;;14.29;100.00
13968;BME280;39536;52.198;9.920;2023-05-20T00:09:00;101598.19;;;14.39;100.00
13968;BME280;39536;52.198;9.920;2023-05-20T00:11:28;101607.88;;;14.36;100.00
13968;BME280;39536;52.198;9.920;2023-05-20T00:13:54;101607.97;;;14.32;100.00
13968;BME280;39536;52.198;9.920;2023-05-20T00:16:20;101603.72;;;14.30;100.00
13968;BME280;39536;52.198;9.920;2023-05-20T00:18:47;101604.66;;;14.27;100.00
13968;BME280;39536;52.198;9.920;2023-05-20T00:21:13;101604.22;;;14.13;100.00
13968;BME280;39536;52.198;9.920;2023-05-20T00:23:40;101612.50;;;13.99;100.00
13968;BME280;39536;52.198;9.920;2023-05-20T00:26:06;101601.38;;;13.91;100.00
13968;BME280;39536;52.198;9.920;2023-05-20T00:28:34;101599.16;;;13.77;100.00
13968;BME280;39536;52.198;9.920;2023-05-20T00:31:01;101609.38;;;13.86;100.00
13968;BME280;39536;52.198;9.920;2023-05-20T00:33:27;101600.72;;;13.83;100.00
13968;BME280;39536;52.198;9.920;2023-05-20T00:35:54;101600.63;;;13.86;100.00
13968;BME280;39536;52.198;9.920;2023-05-20T00:38:20;101599.19;;;13.76;100.00
13968;BME280;39536;52.198;9.920;2023-05-20T00:40:47;101591.06;;;13.55;100.00
13968;BME280;39536;52.198;9.920;2023-05-20T00:43:13;101587.72;;;13.49;100.00
13968;BME280;39536;52.198;9.920;2023-05-20T00:45:41;101588.03;;;13.39;100.00
13968;BME280;39536;52.198;9.920;2023-05-20T00:48:07;101584.53;;;13.39;100.00
13968;BME280;39536;52.198;9.920;2023-05-20T00:50:35;101591.66;;;13.34;100.00
13968;BME280;39536;52.198;9.920;2023-05-20T00:53:02;101588.88;;;13.40;100.00
13968;BME280;39536;52.198;9.920;2023-05-20T00:55:28;101593.94;;;13.46;100.00
13968;BME280;39536;52.198;9.920;2023-05-20T00:57:55;101591.19;;;13.51;100.00
13968;BME280;39536;52.198;9.920;2023-05-20T01:00:22;101594.72;;;13.50;100.00
13968;BME280;39536;52.198;9.920;2023-05-20T01:02:49;101596.66;;;13.42;100.00
13968;BME280;39536;52.198;9.920;2023-05-20T01:05:16;101590.50;;;13.44;100.00
13968;BME280;39536;52.198;9.920;2023-05-20T01:07:43;101590.41;;;13.47;100.00
13968;BME280;39536;52.198;9.920;2023-05-20T01:10:09;101590.31;;;13.50;100.00
13968;BME280;39536;52.198;9.920;2023-05-20T01:12:39;101583.56;;;13.42;100.00
13968;BME280;39536;52.198;9.920;2023-05-20T01:15:09;101585.25;;;13.44;100.00
13968;BME280;39536;52.198;9.920;2023-05-20T01:17:38;101583.63;;;13.40;100.00
13968;BME280;39536;52.198;9.920;2023-05-20T01:20:11;101585.44;;;13.38;100.00
13968;BME280;39536;52.198;9.920;2023-05-20T01:22:45;101582.88;;;13.36;100.00
13968;BME280;39536;52.198;9.920;2023-05-20T01:25:12;101582.38;;;13.21;100.00
13968;BME280;39536;52.198;9.920;2023-05-20T01:27:38;101577.28;;;13.14;100.00
13968;BME280;39536;52.198;9.920;2023-05-20T01:30:06;101582.44;;;13.17;100.00
13968;BME280;39536;52.198;9.920;2023-05-20T01:32:36;101573.88;;;13.12;100.00
13968;BME280;39536;52.198;9.920;2023-05-20T01:35:04;101584.50;;;13.06;100.00
13968;BME280;39536;52.198;9.920;2023-05-20T01:37:31;101583.66;;;13.04;100.00
13968;BME280;39536;52.198;9.920;2023-05-20T01:40:02;101587.44;;;12.94;100.00
13968;BME280;39536;52.198;9.920;2023-05-20T01:42:29;101581.28;;;12.95;100.00
13968;BME280;39536;52.198;9.920;2023-05-20T01:44:55;101584.03;;;12.90;100.00
13968;BME280;39536;52.198;9.920;2023-05-20T01:47:22;101576.59;;;12.74;100.00
13968;BME280;39536;52.198;9.920;2023-05-20T01:49:48;101573.97;;;12.75;100.00
13968;BME280;39536;52.198;9.920;2023-05-20T01:52:18;101568.69;;;12.77;100.00
13968;BME280;39536;52.198;9.920;2023-05-20T01:54:44;101571.19;;;12.81;100.00
13968;BME280;39536;52.198;9.920;2023-05-20T01:57:16;101570.53;;;12.73;100.00
13968;BME280;39536;52.198;9.920;2023-05-20T01:59:43;101566.81;;;12.82;100.00
13968;BME280;39536;52.198;9.920;2023-05-20T02:02:09;101568.34;;;12.90;100.00
13968;BME280;39536;52.198;9.920;2023-05-20T02:04:36;101569.91;;;12.98;100.00
13968;BME280;39536;52.198;9.920;2023-05-20T02:07:02;101569.13;;;12.94;100.00
13968;BME280;39536;52.198;9.920;2023-05-20T02:09:29;101558.84;;;12.86;100.00
13968;BME280;39536;52.198;9.920;2023-05-20T02:11:55;101569.53;;;12.77;100.00
13968;BME280;39536;52.198;9.920;2023-05-20T02:14:23;101571.22;;;12.80;100.00
13968;BME280;39536;52.198;9.920;2023-05-20T02:16:50;101565.13;;;12.81;100.00
13968;BME280;39536;52.198;9.920;2023-05-20T02:19:16;101567.81;;;12.78;100.00
13968;BME280;39536;52.198;9.920;2023-05-20T02:21:47;101574.75;;;12.79;100.00
13968;BME280;39536;52.198;9.920;2023-05-20T02:24:14;101571.28;;;12.77;100.00
13968;BME280;39536;52.198;9.920;2023-05-20T02:26:41;101570.41;;;12.78;100.00
13968;BME280;39536;52.198;9.920;2023-05-20T02:29:08;101564.31;;;12.77;100.00
13968;BME280;39536;52.198;9.920;2023-05-20T02:31:36;101574.69;;;12.80;100.00
13968;BME280;39536;52.198;9.920;2023-05-20T02:34:04;101567.81;;;12.78;100.00
13968;BME280;39536;52.198;9.920;2023-05-20T02:36:30;101567.88;;;12.75;100.00
13968;BME280;39536;52.198;9.920;2023-05-20T02:38:57;101566.06;;;12.77;100.00
13968;BME280;39536;52.198;9.920;2023-05-20T02:41:25;101564.91;;;12.88;100.00
13968;BME280;39536;52.198;9.920;2023-05-20T02:43:51;101558.00;;;12.86;100.00
13968;BME280;39536;52.198;9.920;2023-05-20T02:46:18;101555.06;;;12.98;100.00
13968;BME280;39536;52.198;9.920;2023-05-20T02:48:46;101560.19;;;13.03;100.00
13968;BME280;39536;52.198;9.920;2023-05-20T02:51:13;101557.72;;;12.97;100.00
13968;BME280;39536;52.198;9.920;2023-05-20T02:53:39;101566.34;;;13.00;100.00
13968;BME280;39536;52.198;9.920;2023-05-20T02:56:06;101570.72;;;13.00;100.00
13968;BME280;39536;52.198;9.920;2023-05-20T02:58:33;101569.00;;;12.99;100.00
13968;BME280;39536;52.198;9.920;2023-05-20T03:00:59;101567.91;;;13.07;100.00
13968;BME280;39536;52.198;9.920;2023-05-20T03:03:26;101571.25;;;13.12;100.00
13968;BME280;39536;52.198;9.920;2023-05-20T03:05:54;101566.66;;;13.21;100.00
13968;BME280;39536;52.198;9.920;2023-05-20T03:08:21;101570.06;;;13.26;100.00
13968;BME280;39536;52.198;9.920;2023-05-20T03:10:48;101571.69;;;13.30;100.00
13968;BME280;39536;52.198;9.920;2023-05-20T03:13:14;101571.69;;;13.30;100.00
13968;BME280;39536;52.198;9.920;2023-05-20T03:15:41;101567.34;;;13.29;100.00
13968;BME280;39536;52.198;9.920;2023-05-20T03:18:10;101570.03;;;13.27;100.00
13968;BME280;39536;52.198;9.920;2023-05-20T03:20:36;101565.69;;;13.26;100.00
13968;BME280;39536;52.198;9.920;2023-05-20T03:23:04;101569.16;;;13.27;100.00
13968;BME280;39536;52.198;9.920;2023-05-20T03:25:31;101565.91;;;13.17;100.00
13968;BME280;39536;52.198;9.920;2023-05-20T03:27:58;101567.75;;;13.13;100.00
13968;BME280;39536;52.198;9.920;2023-05-20T03:30:25;101566.09;;;13.09;100.00
13968;BME280;39536;52.198;9.920;2023-05-20T03:32:52;101571.03;;;13.22;100.00
13968;BME280;39536;52.198;9.920;2023-05-20T03:35:19;101564.81;;;13.26;100.00
13968;BME280;39536;52.198;9.920;2023-05-20T03:37:46;101568.03;;;13.35;100.00
13968;BME280;39536;52.198;9.920;2023-05-20T03:40:14;101562.69;;;13.40;100.00
13968;BME280;39536;52.198;9.920;2023-05-20T03:42:40;101557.50;;;13.38;100.00
13968;BME280;39536;52.198;9.920;2023-05-20T03:45:07;101559.25;;;13.38;100.00
13968;BME280;39536;52.198;9.920;2023-05-20T03:47:34;101573.13;;;13.42;100.00
13968;BME280;39536;52.198;9.920;2023-05-20T03:50:01;101564.50;;;13.38;100.00
13968;BME280;39536;52.198;9.920;2023-05-20T03:52:29;101572.13;;;13.46;100.00
13968;BME280;39536;52.198;9.920;2023-05-20T03:54:56;101569.72;;;13.38;100.00
13968;BME280;39536;52.198;9.920;2023-05-20T03:57:24;101567.25;;;13.33;100.00
13968;BME280;39536;52.198;9.920;2023-05-20T03:59:50;101574.03;;;13.40;100.00
13968;BME280;39536;52.198;9.920;2023-05-20T04:02:17;101568.78;;;13.40;100.00
13968;BME280;39536;52.198;9.920;2023-05-20T04:04:43;101568.19;;;13.31;100.00
13968;BME280;39536;52.198;9.920;2023-05-20T04:07:11;101568.91;;;13.36;100.00
13968;BME280;39536;52.198;9.920;2023-05-20T04:09:37;101568.81;;;13.39;100.00
13968;BME280;39536;52.198;9.920;2023-05-20T04:12:04;101568.91;;;13.36;100.00
13968;BME280;39536;52.198;9.920;2023-05-20T04:14:33;101568.03;;;13.37;100.00
13968;BME280;39536;52.198;9.920;2023-05-20T04:17:01;101566.16;;;13.40;100.00
13968;BME280;39536;52.198;9.920;2023-05-20T04:19:27;101572.19;;;13.43;100.00
13968;BME280;39536;52.198;9.920;2023-05-20T04:21:55;101563.41;;;13.45;100.00
13968;BME280;39536;52.198;9.920;2023-05-20T04:24:21;101555.47;;;13.48;100.00
13968;BME280;39536;52.198;9.920;2023-05-20T04:26:49;101563.06;;;13.57;100.00
13968;BME280;39536;52.198;9.920;2023-05-20T04:29:16;101561.38;;;13.56;100.00
13968;BME280;39536;52.198;9.920;2023-05-20T04:31:44;101557.84;;;13.57;100.00
13968;BME280;39536;52.198;9.920;2023-05-20T04:34:11;101554.28;;;13.60;100.00
13968;BME280;39536;52.198;9.920;2023-05-20T04:36:38;101556.81;;;13.63;100.00
13968;BME280;39536;52.198;9.920;2023-05-20T04:39:04;101552.38;;;13.65;100.00
13968;BME280;39536;52.198;9.920;2023-05-20T04:41:33;101548.75;;;13.71;100.00
13968;BME280;39536;52.198;9.920;2023-05-20T04:44:00;101545.91;;;13.77;100.00
13968;BME280;39536;52.198;9.920;2023-05-20T04:46:28;101545.03;;;13.78;100.00
13968;BME280;39536;52.198;9.920;2023-05-20T04:48:57;101543.16;;;13.81;100.00
13968;BME280;39536;52.198;9.920;2023-05-20T04:51:23;101544.28;;;13.73;100.00
13968;BME280;39536;52.198;9.920;2023-05-20T04:53:50;101554.84;;;13.70;100.00
13968;BME280;39536;52.198;9.920;2023-05-20T04:56:16;101563.31;;;13.48;100.00
13968;BME280;39536;52.198;9.920;2023-05-20T04:58:43;101565.50;;;13.32;100.00
13968;BME280;39536;52.198;9.920;2023-05-20T05:01:10;101563.19;;;13.20;100.00
13968;BME280;39536;52.198;9.920;2023-05-20T05:03:38;101557.16;;;13.18;100.00
13968;BME280;39536;52.198;9.920;2023-05-20T05:06:06;101561.09;;;13.34;100.00
13968;BME280;39536;52.198;9.920;2023-05-20T05:08:32;101554.75;;;13.43;100.00
13968;BME280;39536;52.198;9.920;2023-05-20T05:11:04;101553.94;;;13.41;100.00
13968;BME280;39536;52.198;9.920;2023-05-20T05:13:30;101557.72;;;13.31;100.00
13968;BME280;39536;52.198;9.920;2023-05-20T05:15:57;101554.88;;;13.38;100.00
13968;BME280;39536;52.198;9.920;2023-05-20T05:18:24;101560.84;;;13.44;100.00
13968;BME280;39536;52.198;9.920;2023-05-20T05:20:58;101556.38;;;13.47;100.00
13968;BME280;39536;52.198;9.920;2023-05-20T05:23:29;101557.22;;;13.49;100.00
13968;BME280;39536;52.198;9.920;2023-05-20T05:25:56;101557.25;;;13.48;100.00
13968;BME280;39536;52.198;9.920;2023-05-20T05:28:23;101560.88;;;13.42;100.00
13968;BME280;39536;52.198;9.920;2023-05-20T05:30:50;101560.38;;;13.29;100.00
13968;BME280;39536;52.198;9.920;2023-05-20T05:33:21;101559.66;;;13.55;100.00
13968;BME280;39536;52.198;9.920;2023-05-20T05:35:48;101561.19;;;13.62;100.00
13968;BME280;39536;52.198;9.920;2023-05-20T05:38:15;101550.25;;;13.78;100.00
13968;BME280;39536;52.198;9.920;2023-05-20T05:40:42;101562.25;;;13.86;100.00
13968;BME280;39536;52.198;9.920;2023-05-20T05:43:09;101555.44;;;13.79;100.00
13968;BME280;39536;52.198;9.920;2023-05-20T05:45:36;101552.72;;;13.84;100.00
13968;BME280;39536;52.198;9.920;2023-05-20T05:48:03;101558.63;;;13.91;100.00
13968;BME280;39536;52.198;9.920;2023-05-20T05:50:29;101556.09;;;13.88;100.00
13968;BME280;39536;52.198;9.920;2023-05-20T05:52:56;101555.16;;;13.89;100.00
13968;BME280;39536;52.198;9.920;2023-05-20T05:55:22;101541.19;;;13.90;100.00
13968;BME280;39536;52.198;9.920;2023-05-20T05:57:50;101553.75;;;13.78;100.00
13968;BME280;39536;52.198;9.920;2023-05-20T06:00:17;101547.00;;;13.99;100.00
13968;BME280;39536;52.198;9.920;2023-05-20T06:02:44;101544.78;;;14.14;100.00
13968;BME280;39536;52.198;9.920;2023-05-20T06:05:10;101537.84;;;14.13;100.00
13968;BME280;39536;52.198;9.920;2023-05-20T06:07:37;101540.50;;;14.11;100.00
13968;BME280;39536;52.198;9.920;2023-05-20T06:10:04;101545.53;;;14.19;100.00
13968;BME280;39536;52.198;9.920;2023-05-20T06:12:34;101540.72;;;14.05;100.00
13968;BME280;39536;52.198;9.920;2023-05-20T06:15:06;101548.88;;;13.96;100.00
13968;BME280;39536;52.198;9.920;2023-05-20T06:17:33;101550.78;;;14.17;100.00
13968;BME280;39536;52.198;9.920;2023-05-20T06:19:59;101546.66;;;14.38;100.00
13968;BME280;39536;52.198;9.920;2023-05-20T06:22:26;101548.81;;;14.53;100.00
13968;BME280;39536;52.198;9.920;2023-05-20T06:24:54;101552.63;;;14.70;100.00
13968;BME280;39536;52.198;9.920;2023-05-20T06:27:24;101554.25;;;14.74;100.00
13968;BME280;39536;52.198;9.920;2023-05-20T06:29:53;101551.03;;;14.66;100.00
13968;BME280;39536;52.198;9.920;2023-05-20T06:32:21;101555.78;;;14.79;100.00
13968;BME280;39536;52.198;9.920;2023-05-20T06:34:48;101556.44;;;14.61;100.00
13968;BME280;39536;52.198;9.920;2023-05-20T06:37:14;101553.66;;;14.66;100.00
13968;BME280;39536;52.198;9.920;2023-05-20T06:39:41;101545.84;;;14.64;100.00
13968;BME280;39536;52.198;9.920;2023-05-20T06:42:08;101542.94;;;14.72;100.00
13968;BME280;39536;52.198;9.920;2023-05-20T06:44:34;101543.16;;;14.66;100.00
13968;BME280;39536;52.198;9.920;2023-05-20T06:47:04;101540.13;;;14.78;100.00
13968;BME280;39536;52.198;9.920;2023-05-20T06:49:32;101541.91;;;14.77;100.00
13968;BME280;39536;52.198;9.920;2023-05-20T06:51:59;101545.78;;;14.92;100.00
13968;BME280;39536;52.198;9.920;2023-05-20T06:54:25;101542.00;;;14.99;100.00
13968;BME280;39536;52.198;9.920;2023-05-20T06:56:52;101539.53;;;15.20;100.00
13968;BME280;39536;52.198;9.920;2023-05-20T06:59:19;101533.72;;;15.35;100.00
13968;BME280;39536;52.198;9.920;2023-05-20T07:01:45;101529.16;;;15.40;100.00
13968;BME280;39536;52.198;9.920;2023-05-20T07:04:14;101534.91;;;15.52;100.00
13968;BME280;39536;52.198;9.920;2023-05-20T07:06:42;101518.38;;;15.48;100.00
13968;BME280;39536;52.198;9.920;2023-05-20T07:09:12;101524.72;;;15.42;100.00
13968;BME280;39536;52.198;9.920;2023-05-20T07:11:44;101522.22;;;15.39;100.00
13968;BME280;39536;52.198;9.920;2023-05-20T07:14:11;101527.34;;;15.42;100.00
13968;BME280;39536;52.198;9.920;2023-05-20T07:16:38;101514.50;;;15.35;100.00
13968;BME280;39536;52.198;9.920;2023-05-20T07:19:04;101521.34;;;15.39;100.00
13968;BME280;39536;52.198;9.920;2023-05-20T07:21:31;101534.00;;;15.51;100.00
13968;BME280;39536;52.198;9.920;2023-05-20T07:23:59;101511.38;;;15.48;100.00
13968;BME280;39536;52.198;9.920;2023-05-20T07:26:26;101520.25;;;15.44;100.00
13968;BME280;39536;52.198;9.920;2023-05-20T07:28:57;101515.22;;;15.38;100.00
13968;BME280;39536;52.198;9.920;2023-05-20T07:31:23;101514.88;;;15.47;100.00
13968;BME280;39536;52.198;9.920;2023-05-20T07:33:51;101512.38;;;15.44;100.00
13968;BME280;39536;52.198;9.920;2023-05-20T07:36:18;101507.47;;;15.59;100.00
13968;BME280;39536;52.198;9.920;2023-05-20T07:38:45;101503.38;;;15.52;100.00
13968;BME280;39536;52.198;9.920;2023-05-20T07:41:13;101507.09;;;15.46;100.00
13968;BME280;39536;52.198;9.920;2023-05-20T07:43:46;101512.16;;;15.51;100.00
13968;BME280;39536;52.198;9.920;2023-05-20T07:46:13;101515.13;;;15.65;100.00
13968;BME280;39536;52.198;9.920;2023-05-20T07:48:40;101516.50;;;15.75;100.00
13968;BME280;39536;52.198;9.920;2023-05-20T07:51:07;101514.50;;;15.82;100.00
13968;BME280;39536;52.198;9.920;2023-05-20T07:53:34;101512.72;;;15.82;100.00
13968;BME280;39536;52.198;9.920;2023-05-20T07:56:03;101509.31;;;15.80;100.00
13968;BME280;39536;52.198;9.920;2023-05-20T07:58:31;101514.06;;;15.70;100.00
13968;BME280;39536;52.198;9.920;2023-05-20T08:00:58;101510.84;;;15.86;100.00
13968;BME280;39536;52.198;9.920;2023-05-20T08:03:25;101504.22;;;15.76;100.00
13968;BME280;39536;52.198;9.920;2023-05-20T08:05:55;101504.97;;;15.79;100.00
13968;BME280;39536;52.198;9.920;2023-05-20T08:08:22;101502.66;;;15.93;100.00
13968;BME280;39536;52.198;9.920;2023-05-20T08:10:52;101501.84;;;15.91;100.00
13968;BME280;39536;52.198;9.920;2023-05-20T08:13:23;101500.41;;;15.61;100.00
13968;BME280;39536;52.198;9.920;2023-05-20T08:15:53;101507.16;;;15.66;100.00
13968;BME280;39536;52.198;9.920;2023-05-20T08:18:21;101502.63;;;15.48;100.00
13968;BME280;39536;52.198;9.920;2023-05-20T08:20:48;101510.50;;;15.48;100.00
13968;BME280;39536;52.198;9.920;2023-05-20T08:23:15;101506.28;;;15.44;100.00
13968;BME280;39536;52.198;9.920;2023-05-20T08:25:45;101505.06;;;15.29;100.00
13968;BME280;39536;52.198;9.920;2023-05-20T08:28:24;101500.94;;;15.23;100.00
13968;BME280;39536;52.198;9.920;2023-05-20T08:30:52;101505.94;;;15.30;100.00
13968;BME280;39536;52.198;9.920;2023-05-20T08:33:19;101505.66;;;15.37;100.00
13968;BME280;39536;52.198;9.920;2023-05-20T08:35:46;101499.16;;;15.24;100.00
13968;BME280;39536;52.198;9.920;2023-05-20T08:38:12;101504.22;;;15.29;100.00
13968;BME280;39536;52.198;9.920;2023-05-20T08:40:39;101497.88;;;15.34;100.00
13968;BME280;39536;52.198;9.920;2023-05-20T08:43:06;101499.88;;;15.51;100.00
13968;BME280;39536;52.198;9.920;2023-05-20T08:45:36;101496.78;;;15.63;100.00
13968;BME280;39536;52.198;9.920;2023-05-20T08:48:04;101488.19;;;15.83;100.00
13968;BME280;39536;52.198;9.920;2023-05-20T08:50:32;101485.56;;;15.83;100.00
13968;BME280;39536;52.198;9.920;2023-05-20T08:52:59;101494.53;;;15.78;100.00
13968;BME280;39536;52.198;9.920;2023-05-20T08:55:32;101495.22;;;15.83;100.00
13968;BME280;39536;52.198;9.920;2023-05-20T08:58:03;101490.63;;;15.88;100.00
13968;BME280;39536;52.198;9.920;2023-05-20T09:00:29;101490.50;;;15.91;100.00
13968;BME280;39536;52.198;9.920;2023-05-20T09:02:58;101490.63;;;15.88;100.00
13968;BME280;39536;52.198;9.920;2023-05-20T09:05:27;101496.91;;;15.84;100.00
13968;BME280;39536;52.198;9.920;2023-05-20T09:08:04;101482.97;;;16.04;100.00
13968;BME280;39536;52.198;9.920;2023-05-20T09:10:31;101485.59;;;16.26;100.00
13968;BME280;39536;52.198;9.920;2023-05-20T09:12:59;101482.16;;;16.46;100.00
13968;BME280;39536;52.198;9.920;2023-05-20T09:15:25;101488.06;;;16.71;100.00
13968;BME280;39536;52.198;9.920;2023-05-20T09:17:52;101485.25;;;16.96;100.00
13968;BME280;39536;52.198;9.920;2023-05-20T09:20:20;101489.91;;;17.10;100.00
13968;BME280;39536;52.198;9.920;2023-05-20T09:22:50;101492.25;;;17.16;100.00
13968;BME280;39536;52.198;9.920;2023-05-20T09:25:18;101488.72;;;17.17;100.00
13968;BME280;39536;52.198;9.920;2023-05-20T09:27:44;101483.75;;;17.30;100.00
13968;BME280;39536;52.198;9.920;2023-05-20T09:32:36;101472.97;;;17.72;100.00
13968;BME280;39536;52.198;9.920;2023-05-20T09:35:04;101468.59;;;17.92;100.00
13968;BME280;39536;52.198;9.920;2023-05-20T09:37:32;101467.59;;;17.94;100.00
13968;BME280;39536;52.198;9.920;2023-05-20T09:40:03;101476.00;;;17.84;100.00
13968;BME280;39536;52.198;9.920;2023-05-20T09:42:37;101463.69;;;17.84;100.00
13968;BME280;39536;52.198;9.920;2023-05-20T09:45:06;101464.47;;;18.04;100.00
13968;BME280;39536;52.198;9.920;2023-05-20T09:47:34;101466.66;;;18.13;100.00
13968;BME280;39536;52.198;9.920;2023-05-20T09:50:01;101462.66;;;18.23;100.00
13968;BME280;39536;52.198;9.920;2023-05-20T09:52:28;101465.47;;;18.55;100.00
13968;BME280;39536;52.198;9.920;2023-05-20T09:54:56;101462.19;;;18.84;100.00
13968;BME280;39536;52.198;9.920;2023-05-20T09:57:24;101462.66;;;18.92;100.00
13968;BME280;39536;52.198;9.920;2023-05-20T09:59:51;101468.56;;;18.80;100.00
13968;BME280;39536;52.198;9.920;2023-05-20T10:02:18;101473.59;;;18.50;100.00
13968;BME280;39536;52.198;9.920;2023-05-20T10:04:48;101460.41;;;18.67;100.00
13968;BME280;39536;52.198;9.920;2023-05-20T10:10:32;101459.09;;;18.24;100.00
13968;BME280;39536;52.198;9.920;2023-05-20T10:13:16;101451.16;;;18.07;100.00
13968;BME280;39536;52.198;9.920;2023-05-20T10:15:49;101467.66;;;17.93;100.00
13968;BME280;39536;52.198;9.920;2023-05-20T10:18:29;101457.50;;;18.03;100.00
13968;BME280;39536;52.198;9.920;2023-05-20T10:21:01;101460.78;;;18.25;100.00
13968;BME280;39536;52.198;9.920;2023-05-20T10:23:28;101461.97;;;18.19;100.00
13968;BME280;39536;52.198;9.920;2023-05-20T10:25:57;101455.03;;;17.99;100.00
13968;BME280;39536;52.198;9.920;2023-05-20T10:28:29;101448.44;;;18.08;100.00
13968;BME280;39536;52.198;9.920;2023-05-20T10:30:57;101449.41;;;18.42;100.00
13968;BME280;39536;52.198;9.920;2023-05-20T10:33:25;101441.56;;;18.58;100.00
13968;BME280;39536;52.198;9.920;2023-05-20T10:35:53;101438.44;;;18.84;100.00
13968;BME280;39536;52.198;9.920;2023-05-20T10:38:20;101438.31;;;19.03;100.00
13968;BME280;39536;52.198;9.920;2023-05-20T10:40:46;101440.72;;;19.24;100.00
13968;BME280;39536;52.198;9.920;2023-05-20T10:43:14;101433.56;;;19.10;100.00
13968;BME280;39536;52.198;9.920;2023-05-20T10:45:50;101436.28;;;19.08;100.00
13968;BME280;39536;52.198;9.920;2023-05-20T10:48:22;101443.31;;;18.92;100.00
13968;BME280;39536;52.198;9.920;2023-05-20T10:50:49;101441.00;;;18.68;100.00
13968;BME280;39536;52.198;9.920;2023-05-20T10:53:16;101447.22;;;18.50;100.00
13968;BME280;39536;52.198;9.920;2023-05-20T10:55:47;101435.59;;;18.19;100.00
13968;BME280;39536;52.198;9.920;2023-05-20T10:58:16;101438.66;;;17.93;100.00
13968;BME280;39536;52.198;9.920;2023-05-20T11:00:43;101432.00;;;17.86;100.00
13968;BME280;39536;52.198;9.920;2023-05-20T11:03:11;101433.09;;;17.99;100.00
13968;BME280;39536;52.198;9.920;2023-05-20T11:05:39;101427.56;;;17.86;100.00
13968;BME280;39536;52.198;9.920;2023-05-20T11:08:07;101425.19;;;17.99;100.00
13968;BME280;39536;52.198;9.920;2023-05-20T11:10:34;101425.00;;;17.85;100.00
13968;BME280;39536;52.198;9.920;2023-05-20T11:13:02;101427.25;;;17.92;100.00
13968;BME280;39536;52.198;9.920;2023-05-20T11:15:30;101423.47;;;17.98;100.00
13968;BME280;39536;52.198;9.920;2023-05-20T11:18:00;101422.53;;;17.99;100.00
13968;BME280;39536;52.198;9.920;2023-05-20T11:20:29;101417.88;;;17.87;100.00
13968;BME280;39536;52.198;9.920;2023-05-20T11:22:59;101406.19;;;17.73;100.00
13968;BME280;39536;52.198;9.920;2023-05-20T11:25:26;101407.88;;;17.74;100.00
13968;BME280;39536;52.198;9.920;2023-05-20T11:27:53;101409.44;;;17.97;100.00
13968;BME280;39536;52.198;9.920;2023-05-20T11:30:20;101394.03;;;18.07;100.00
13968;BME280;39536;52.198;9.920;2023-05-20T11:32:56;101397.09;;;18.15;100.00
13968;BME280;39536;52.198;9.920;2023-05-20T11:35:23;101395.31;;;18.33;100.00
13968;BME280;39536;52.198;9.920;2023-05-20T11:38:00;101392.28;;;18.41;100.00
13968;BME280;39536;52.198;9.920;2023-05-20T11:40:27;101387.63;;;18.46;100.00
13968;BME280;39536;52.198;9.920;2023-05-20T11:42:54;101382.97;;;18.34;100.00
13968;BME280;39536;52.198;9.920;2023-05-20T11:45:21;101386.47;;;18.34;100.00
13968;BME280;39536;52.198;9.920;2023-05-20T11:48:01;101378.66;;;18.33;100.00
13968;BME280;39536;52.198;9.920;2023-05-20T11:50:32;101378.53;;;18.52;100.00
13968;BME280;39536;52.198;9.920;2023-05-20T11:53:02;101376.00;;;18.66;100.00
13968;BME280;39536;52.198;9.920;2023-05-20T11:55:30;101377.31;;;18.92;100.00
13968;BME280;39536;52.198;9.920;2023-05-20T11:57:57;101371.56;;;18.84;100.00
13968;BME280;39536;52.198;9.920;2023-05-20T12:00:24;101376.00;;;18.66;100.00
13968;BME280;39536;52.198;9.920;2023-05-20T12:02:51;101367.66;;;18.58;100.00
13968;BME280;39536;52.198;9.920;2023-05-20T12:05:17;101367.91;;;18.53;100.00
13968;BME280;39536;52.198;9.920;2023-05-20T12:07:44;101363.66;;;18.51;100.00
13968;BME280;39536;52.198;9.920;2023-05-20T12:10:12;101359.94;;;18.37;100.00
13968;BME280;39536;52.198;9.920;2023-05-20T12:12:39;101363.00;;;18.63;100.00
13968;BME280;39536;52.198;9.920;2023-05-20T12:15:06;101358.25;;;18.69;100.00
13968;BME280;39536;52.198;9.920;2023-05-20T12:17:48;101358.91;;;18.57;100.00
13968;BME280;39536;52.198;9.920;2023-05-20T12:20:16;101360.38;;;18.63;100.00
13968;BME280;39536;52.198;9.920;2023-05-20T12:22:43;101356.34;;;18.73;100.00
13968;BME280;39536;52.198;9.920;2023-05-20T12:25:12;101351.41;;;18.83;100.00
13968;BME280;39536;52.198;9.920;2023-05-20T12:27:40;101359.38;;;18.81;100.00
13968;BME280;39536;52.198;9.920;2023-05-20T12:30:07;101347.91;;;18.82;100.00
13968;BME280;39536;52.198;9.920;2023-05-20T12:32:35;101344.59;;;18.79;100.00
13968;BME280;39536;52.198;9.920;2023-05-20T12:35:01;101343.88;;;18.75;100.00
13968;BME280;39536;52.198;9.920;2023-05-20T12:37:28;101336.19;;;18.88;100.00
13968;BME280;39536;52.198;9.920;2023-05-20T12:39:54;101337.03;;;18.88;100.00
13968;BME280;39536;52.198;9.920;2023-05-20T12:42:22;101338.84;;;19.04;100.00
13968;BME280;39536;52.198;9.920;2023-05-20T12:44:48;101329.13;;;19.04;100.00
13968;BME280;39536;52.198;9.920;2023-05-20T12:47:15;101326.38;;;19.22;100.00
13968;BME280;39536;52.198;9.920;2023-05-20T12:49:41;101331.22;;;19.29;100.00